createdAt,value
2017-09-19T00:01:53.073Z,2.43
2017-09-19T00:04:20.599Z,2.17
2017-09-19T00:06:48.116Z,2.50
2017-09-19T00:09:15.615Z,2.70
2017-09-19T00:11:43.137Z,2.67
2017-09-19T00:14:10.639Z,2.30
2017-09-19T00:16:38.148Z,2.10
2017-09-19T00:19:05.663Z,3.20
2017-09-19T00:21:33.164Z,3.03
2017-09-19T00:24:00.679Z,2.43
2017-09-19T00:26:28.198Z,2.00
2017-09-19T00:28:55.702Z,2.00
2017-09-19T00:31:23.237Z,2.27
2017-09-19T00:33:50.738Z,2.27
2017-09-19T00:36:18.276Z,2.30
2017-09-19T00:38:45.776Z,2.53
2017-09-19T00:41:13.276Z,1.87
2017-09-19T00:43:40.778Z,2.00
2017-09-19T00:46:08.296Z,1.70
2017-09-19T00:48:35.794Z,1.90
2017-09-19T00:51:03.313Z,2.00
2017-09-19T00:53:30.812Z,1.87
2017-09-19T00:55:58.334Z,2.10
2017-09-19T00:58:25.878Z,2.03
2017-09-19T01:00:53.367Z,2.10
2017-09-19T01:03:20.919Z,2.40
2017-09-19T01:05:48.443Z,1.93
2017-09-19T01:08:15.938Z,1.77
2017-09-19T01:10:43.463Z,2.33
2017-09-19T01:13:10.987Z,1.40
2017-09-19T01:15:38.489Z,1.70
2017-09-19T01:18:05.987Z,2.03
2017-09-19T01:20:33.492Z,2.20
2017-09-19T01:23:01.006Z,2.10
2017-09-19T01:25:28.513Z,1.80
2017-09-19T01:27:56.150Z,2.40
2017-09-19T01:30:23.675Z,2.10
2017-09-19T01:32:51.177Z,1.90
2017-09-19T01:35:18.685Z,2.00
2017-09-19T01:37:46.188Z,2.13
2017-09-19T01:40:18.526Z,1.70
2017-09-19T01:42:46.047Z,2.20
2017-09-19T01:45:13.555Z,1.70
2017-09-19T01:47:41.073Z,1.23
2017-09-19T01:50:08.603Z,1.83
2017-09-19T01:52:36.103Z,1.60
2017-09-19T01:55:03.610Z,1.70
2017-09-19T01:57:31.146Z,1.93
2017-09-19T01:59:58.664Z,1.97
2017-09-19T02:02:26.170Z,2.30
2017-09-19T02:04:53.680Z,2.20
2017-09-19T02:07:21.185Z,1.90
2017-09-19T02:09:48.682Z,1.80
2017-09-19T02:12:16.186Z,1.50
2017-09-19T02:14:43.710Z,1.73
2017-09-19T02:17:11.216Z,2.00
2017-09-19T02:19:38.726Z,3.63
2017-09-19T02:22:06.232Z,2.13
2017-09-19T02:24:33.734Z,1.97
2017-09-19T02:27:01.711Z,2.13
2017-09-19T02:29:29.268Z,2.23
2017-09-19T02:31:56.791Z,2.03
2017-09-19T02:34:27.893Z,1.80
2017-09-19T02:36:55.455Z,1.90
2017-09-19T02:39:22.951Z,2.23
2017-09-19T02:41:50.649Z,1.90
2017-09-19T02:44:18.166Z,2.17
2017-09-19T02:46:46.663Z,2.00
2017-09-19T02:49:14.174Z,2.23
2017-09-19T02:51:41.680Z,2.20
2017-09-19T02:54:09.187Z,1.90
2017-09-19T02:56:36.699Z,2.10
2017-09-19T02:59:04.229Z,2.10
2017-09-19T03:01:31.964Z,1.83
2017-09-19T03:03:59.479Z,2.00
2017-09-19T03:06:27.027Z,2.10
2017-09-19T03:08:54.596Z,1.83
2017-09-19T03:11:22.219Z,2.03
2017-09-19T03:13:49.721Z,1.67
2017-09-19T03:16:17.340Z,24.07
2017-09-19T03:18:44.844Z,2.30
2017-09-19T03:21:12.440Z,2.53
2017-09-19T03:23:39.943Z,2.40
2017-09-19T03:26:07.452Z,2.27
2017-09-19T03:28:34.967Z,1.87
2017-09-19T03:31:02.470Z,2.07
2017-09-19T03:33:30.016Z,1.90
2017-09-19T03:35:57.719Z,2.50
2017-09-19T03:38:25.237Z,2.27
2017-09-19T03:40:52.750Z,2.30
2017-09-19T03:43:20.267Z,2.23
2017-09-19T03:45:47.773Z,6.13
2017-09-19T03:48:15.286Z,6.40
2017-09-19T03:50:42.791Z,4.50
2017-09-19T03:53:10.318Z,4.00
2017-09-19T03:55:37.836Z,3.30
2017-09-19T03:58:05.348Z,3.90
2017-09-19T04:00:32.856Z,3.17
2017-09-19T04:03:00.364Z,3.23
2017-09-19T04:05:27.858Z,2.87
2017-09-19T04:07:55.357Z,3.23
2017-09-19T04:10:22.855Z,3.23
2017-09-19T04:12:50.355Z,2.93
2017-09-19T04:15:17.859Z,3.17
2017-09-19T04:17:45.380Z,3.30
2017-09-19T04:20:12.883Z,3.00
2017-09-19T04:22:40.397Z,3.87
2017-09-19T04:25:07.903Z,3.30
2017-09-19T04:27:35.424Z,2.80
2017-09-19T04:30:02.923Z,3.23
2017-09-19T04:32:30.463Z,4.30
2017-09-19T04:34:57.963Z,4.43
2017-09-19T04:37:25.496Z,3.00
2017-09-19T04:39:53.007Z,3.77
2017-09-19T04:42:20.523Z,4.30
2017-09-19T04:44:48.050Z,4.27
2017-09-19T04:47:15.569Z,3.83
2017-09-19T04:49:43.084Z,4.20
2017-09-19T04:52:10.603Z,3.43
2017-09-19T04:54:38.127Z,2.80
2017-09-19T04:57:05.651Z,3.43
2017-09-19T04:59:33.170Z,3.43
2017-09-19T05:02:00.690Z,3.20
2017-09-19T05:04:28.207Z,2.47
2017-09-19T05:06:55.710Z,2.53
2017-09-19T05:09:23.220Z,2.90
2017-09-19T05:11:50.735Z,2.70
2017-09-19T05:14:18.269Z,3.50
2017-09-19T05:16:45.800Z,2.70
2017-09-19T05:19:13.322Z,2.80
2017-09-19T05:21:40.822Z,3.90
2017-09-19T05:24:08.407Z,3.30
2017-09-19T05:26:35.950Z,3.73
2017-09-19T05:29:03.430Z,5.30
2017-09-19T05:31:30.943Z,4.20
2017-09-19T05:33:58.469Z,3.50
2017-09-19T05:36:25.978Z,3.10
2017-09-19T05:38:53.567Z,3.40
2017-09-19T05:41:21.079Z,3.10
2017-09-19T05:43:48.589Z,2.90
2017-09-19T05:46:16.101Z,2.90
2017-09-19T05:48:43.602Z,3.00
2017-09-19T05:51:11.106Z,3.00
2017-09-19T05:53:38.645Z,3.60
2017-09-19T05:56:06.203Z,3.23
2017-09-19T05:58:33.715Z,2.70
2017-09-19T06:01:01.237Z,3.30
2017-09-19T06:03:28.762Z,2.70
2017-09-19T06:05:56.270Z,3.57
2017-09-19T06:08:23.782Z,2.93
2017-09-19T06:10:51.350Z,2.97
2017-09-19T06:13:18.867Z,3.03
2017-09-19T06:15:46.382Z,2.73
2017-09-19T06:18:13.929Z,3.07
2017-09-19T06:20:41.447Z,2.93
2017-09-19T06:23:08.951Z,3.13
2017-09-19T06:25:36.458Z,3.13
2017-09-19T06:28:03.964Z,3.10
2017-09-19T06:30:31.512Z,3.30
2017-09-19T06:32:59.016Z,2.83
2017-09-19T06:35:26.574Z,2.80
2017-09-19T06:37:54.219Z,2.20
2017-09-19T06:40:21.763Z,2.93
2017-09-19T06:42:49.276Z,2.50
2017-09-19T06:45:16.791Z,2.27
2017-09-19T06:47:44.304Z,3.47
2017-09-19T06:50:11.810Z,2.60
2017-09-19T06:52:39.335Z,2.70
2017-09-19T06:55:06.900Z,2.57
2017-09-19T06:57:34.456Z,2.53
2017-09-19T07:00:01.964Z,3.10
2017-09-19T07:02:29.576Z,2.70
2017-09-19T07:04:57.083Z,3.50
2017-09-19T07:07:24.602Z,3.30
2017-09-19T07:09:52.129Z,3.37
2017-09-19T07:12:19.661Z,3.63
2017-09-19T07:14:49.270Z,4.17
2017-09-19T07:17:16.802Z,4.60
2017-09-19T07:19:44.337Z,2.80
2017-09-19T07:22:11.855Z,2.63
2017-09-19T07:24:39.350Z,2.57
2017-09-19T07:27:06.893Z,2.80
2017-09-19T07:29:34.418Z,2.90
2017-09-19T07:32:01.926Z,3.07
2017-09-19T07:34:29.477Z,2.53
2017-09-19T07:36:57.008Z,2.10
2017-09-19T07:39:24.547Z,2.80
2017-09-19T07:41:52.089Z,2.13
2017-09-19T07:44:19.608Z,2.77
2017-09-19T07:46:47.110Z,2.63
2017-09-19T07:49:14.646Z,2.67
2017-09-19T07:51:42.157Z,2.90
2017-09-19T07:54:09.666Z,2.97
2017-09-19T07:56:37.188Z,2.67
2017-09-19T07:59:04.760Z,2.43
2017-09-19T08:01:32.292Z,2.20
2017-09-19T08:03:59.845Z,1.60
2017-09-19T08:06:27.375Z,1.70
2017-09-19T08:08:54.878Z,1.60
2017-09-19T08:11:22.391Z,1.93
2017-09-19T08:13:49.908Z,2.03
2017-09-19T08:16:17.414Z,1.90
2017-09-19T08:18:45.025Z,2.03
2017-09-19T08:21:12.549Z,1.30
2017-09-19T08:23:40.067Z,1.37
2017-09-19T08:26:07.588Z,1.53
2017-09-19T08:28:35.107Z,1.40
2017-09-19T08:31:02.617Z,1.40
2017-09-19T08:33:30.123Z,1.33
2017-09-19T08:35:57.667Z,1.70
2017-09-19T08:38:25.174Z,1.20
2017-09-19T08:40:52.746Z,1.60
2017-09-19T08:43:20.296Z,1.60
2017-09-19T08:45:47.833Z,1.40
2017-09-19T08:48:15.360Z,1.27
2017-09-19T08:50:42.980Z,1.40
2017-09-19T08:53:10.492Z,1.93
2017-09-19T08:55:38.038Z,1.60
2017-09-19T08:58:05.553Z,1.80
2017-09-19T09:00:33.087Z,2.00
2017-09-19T09:03:00.589Z,1.90
2017-09-19T09:05:28.115Z,2.27
2017-09-19T09:07:55.681Z,2.20
2017-09-19T09:10:23.195Z,1.60
2017-09-19T09:12:50.705Z,1.90
2017-09-19T09:15:18.211Z,1.70
2017-09-19T09:17:45.738Z,1.90
2017-09-19T09:20:13.259Z,1.43
2017-09-19T09:22:40.757Z,1.40
2017-09-19T09:25:08.397Z,1.77
2017-09-19T09:27:35.953Z,2.07
2017-09-19T09:30:03.479Z,1.40
2017-09-19T09:32:31.025Z,1.93
2017-09-19T09:34:58.566Z,1.90
2017-09-19T09:37:26.098Z,1.50
2017-09-19T09:39:53.643Z,2.00
2017-09-19T09:42:21.172Z,1.53
2017-09-19T09:44:48.694Z,1.43
2017-09-19T09:47:16.196Z,1.47
2017-09-19T09:49:43.699Z,1.70
2017-09-19T09:52:11.234Z,1.50
2017-09-19T09:54:38.790Z,2.47
2017-09-19T09:57:06.292Z,2.07
2017-09-19T09:59:33.910Z,2.20
2017-09-19T10:02:01.440Z,2.50
2017-09-19T10:04:28.959Z,2.40
2017-09-19T10:06:56.476Z,2.70
2017-09-19T10:09:24.284Z,2.50
2017-09-19T10:11:52.203Z,2.27
2017-09-19T10:14:19.708Z,2.10
2017-09-19T10:16:47.261Z,2.00
2017-09-19T10:19:14.771Z,1.90
2017-09-19T10:21:42.299Z,2.40
2017-09-19T10:24:09.839Z,1.70
2017-09-19T10:26:37.359Z,2.27
2017-09-19T10:29:04.869Z,1.97
2017-09-19T10:31:32.379Z,1.67
2017-09-19T10:33:59.894Z,2.10
2017-09-19T10:36:27.418Z,1.70
2017-09-19T10:38:54.958Z,1.87
2017-09-19T10:41:22.491Z,1.47
2017-09-19T10:43:50.018Z,1.83
2017-09-19T10:46:17.515Z,1.43
2017-09-19T10:48:45.089Z,1.70
2017-09-19T10:51:12.599Z,1.80
2017-09-19T10:53:40.164Z,2.57
2017-09-19T10:56:07.695Z,2.30
2017-09-19T10:58:35.235Z,1.27
2017-09-19T11:01:02.757Z,1.00
2017-09-19T11:03:30.278Z,1.07
2017-09-19T11:05:57.894Z,0.63
2017-09-19T11:08:25.431Z,0.93
2017-09-19T11:10:52.937Z,0.73
2017-09-19T11:13:20.455Z,2.20
2017-09-19T11:15:47.965Z,1.03
2017-09-19T11:18:15.475Z,1.03
2017-09-19T11:20:43.044Z,0.73
2017-09-19T11:23:10.576Z,3.70
2017-09-19T11:25:38.087Z,1.70
2017-09-19T11:28:05.618Z,1.10
2017-09-19T11:30:33.143Z,2.13
2017-09-19T11:33:00.672Z,4.70
2017-09-19T11:35:28.176Z,1.00
2017-09-19T11:37:55.741Z,1.20
2017-09-19T11:40:23.256Z,1.00
2017-09-19T11:42:50.767Z,1.27
2017-09-19T11:45:18.297Z,1.27
2017-09-19T11:47:45.885Z,1.20
2017-09-19T11:50:13.442Z,7.40
2017-09-19T11:52:40.957Z,0.80
2017-09-19T11:55:08.476Z,1.10
2017-09-19T11:57:35.994Z,0.90
2017-09-19T12:00:03.516Z,1.30
2017-09-19T12:02:31.047Z,1.47
2017-09-19T12:04:58.554Z,1.70
2017-09-19T12:07:26.072Z,1.53
2017-09-19T12:09:53.574Z,2.43
2017-09-19T12:12:21.124Z,2.77
2017-09-19T12:14:48.648Z,3.50
2017-09-19T12:17:16.151Z,2.80
2017-09-19T12:19:43.663Z,2.17
2017-09-19T12:22:11.197Z,1.60
2017-09-19T12:24:38.740Z,1.37
2017-09-19T12:27:06.238Z,1.43
2017-09-19T12:29:33.783Z,1.37
2017-09-19T12:32:01.298Z,1.40
2017-09-19T12:34:28.890Z,1.30
2017-09-19T12:36:56.402Z,1.20
2017-09-19T12:39:23.943Z,1.13
2017-09-19T12:41:51.446Z,0.80
2017-09-19T12:44:18.946Z,0.80
2017-09-19T12:46:46.443Z,1.13
2017-09-19T12:49:14.037Z,1.17
2017-09-19T12:51:41.537Z,1.10
2017-09-19T12:54:09.052Z,1.60
2017-09-19T12:56:36.575Z,0.83
2017-09-19T12:59:04.113Z,0.97
2017-09-19T13:01:58.721Z,0.73
2017-09-19T13:04:40.824Z,0.77
2017-09-19T13:10:29.324Z,0.60
2017-09-19T13:12:56.855Z,0.80
2017-09-19T13:15:24.652Z,0.60
2017-09-19T13:17:52.175Z,0.80
2017-09-19T13:20:19.708Z,0.67
2017-09-19T13:22:47.259Z,0.90
2017-09-19T13:25:14.762Z,0.60
2017-09-19T13:27:42.284Z,0.60
2017-09-19T13:30:09.824Z,0.70
2017-09-19T13:35:39.597Z,0.80
2017-09-19T13:38:07.111Z,0.90
2017-09-19T13:40:34.674Z,1.40
2017-09-19T13:43:02.214Z,1.43
2017-09-19T13:45:31.354Z,1.30
2017-09-19T13:47:58.869Z,1.73
2017-09-19T13:50:26.384Z,1.73
2017-09-19T13:52:53.921Z,1.63
2017-09-19T13:55:21.440Z,2.50
2017-09-19T13:57:48.971Z,2.43
2017-09-19T14:00:16.500Z,2.20
2017-09-19T14:02:44.030Z,2.43
2017-09-19T14:05:11.579Z,2.83
2017-09-19T14:07:39.103Z,2.30
2017-09-19T14:10:13.967Z,2.87
2017-09-19T14:12:56.343Z,1.97
2017-09-19T14:15:33.113Z,2.00
2017-09-19T14:18:00.664Z,2.23
2017-09-19T14:20:28.476Z,1.77
2017-09-19T14:22:57.874Z,1.77
2017-09-19T14:25:25.406Z,2.17
2017-09-19T14:27:52.930Z,1.57
2017-09-19T14:30:20.504Z,1.90
2017-09-19T14:32:48.051Z,2.10
2017-09-19T14:35:15.604Z,2.00
2017-09-19T14:37:43.130Z,1.90
2017-09-19T14:40:10.634Z,2.57
2017-09-19T14:42:38.147Z,2.30
2017-09-19T14:45:05.685Z,1.90
2017-09-19T14:47:33.208Z,1.80
2017-09-19T14:50:00.728Z,2.13
2017-09-19T14:52:28.250Z,2.07
2017-09-19T14:54:55.784Z,1.97
2017-09-19T14:57:23.570Z,2.60
2017-09-19T14:59:51.130Z,2.00
2017-09-19T15:02:18.640Z,2.47
2017-09-19T15:04:46.145Z,2.60
2017-09-19T15:07:13.663Z,2.90
2017-09-19T15:09:41.207Z,2.40
2017-09-19T15:12:08.719Z,2.50
2017-09-19T15:14:36.269Z,2.70
2017-09-19T15:17:03.790Z,2.60
2017-09-19T15:19:31.301Z,2.50
2017-09-19T15:21:58.930Z,3.17
2017-09-19T15:24:26.452Z,2.70
2017-09-19T15:26:53.968Z,3.37
2017-09-19T15:29:21.487Z,2.90
2017-09-19T15:31:48.991Z,2.77
2017-09-19T15:34:16.517Z,3.07
2017-09-19T15:36:44.034Z,2.60
2017-09-19T15:39:11.542Z,1.90
2017-09-19T15:41:39.055Z,2.00
2017-09-19T15:44:06.559Z,2.37
2017-09-19T15:46:34.095Z,2.50
2017-09-19T15:49:01.607Z,2.70
2017-09-19T15:51:29.143Z,2.37
2017-09-19T15:53:56.662Z,2.87
2017-09-19T15:56:24.169Z,2.00
2017-09-19T15:58:51.728Z,1.80
2017-09-19T16:01:19.244Z,1.80
2017-09-19T16:03:46.749Z,1.90
2017-09-19T16:06:14.265Z,2.40
2017-09-19T16:08:41.836Z,1.77
2017-09-19T16:11:09.423Z,1.90
2017-09-19T16:13:37.046Z,2.30
2017-09-19T16:16:04.561Z,2.00
2017-09-19T16:18:32.145Z,2.00
2017-09-19T16:20:59.676Z,2.53
2017-09-19T16:23:27.208Z,2.50
2017-09-19T16:25:54.726Z,2.40
2017-09-19T16:28:22.337Z,2.00
2017-09-19T16:30:49.858Z,2.20
2017-09-19T16:33:17.383Z,2.17
2017-09-19T16:35:44.901Z,2.20
2017-09-19T16:38:12.432Z,2.13
2017-09-19T16:40:39.942Z,2.17
2017-09-19T16:43:07.477Z,2.33
2017-09-19T16:45:35.029Z,2.53
2017-09-19T16:48:02.570Z,2.70
2017-09-19T16:50:30.086Z,2.90
2017-09-19T16:52:57.687Z,3.13
2017-09-19T16:55:25.238Z,3.30
2017-09-19T16:57:52.877Z,3.70
2017-09-19T17:00:20.414Z,3.17
2017-09-19T17:02:47.952Z,2.87
2017-09-19T17:05:15.464Z,2.30
2017-09-19T17:07:42.973Z,2.80
2017-09-19T17:10:10.508Z,2.70
2017-09-19T17:12:38.019Z,2.77
2017-09-19T17:15:05.525Z,3.10
2017-09-19T17:17:33.043Z,2.90
2017-09-19T17:20:00.551Z,2.80
2017-09-19T17:22:28.081Z,2.90
2017-09-19T17:24:55.588Z,2.63
2017-09-19T17:27:23.111Z,2.60
2017-09-19T17:29:50.658Z,2.83
2017-09-19T17:32:18.183Z,3.10
2017-09-19T17:34:45.822Z,2.60
2017-09-19T17:37:13.334Z,2.87
2017-09-19T17:39:40.860Z,2.80
2017-09-19T17:42:08.386Z,3.10
2017-09-19T17:44:35.963Z,2.90
2017-09-19T17:47:03.562Z,2.87
2017-09-19T17:49:31.074Z,3.03
2017-09-19T17:51:58.588Z,3.40
2017-09-19T17:54:26.125Z,3.20
2017-09-19T17:56:53.645Z,3.13
2017-09-19T17:59:21.293Z,3.50
2017-09-19T18:01:48.901Z,3.70
2017-09-19T18:04:16.408Z,4.33
2017-09-19T18:06:43.950Z,4.80
2017-09-19T18:09:11.474Z,3.80
2017-09-19T18:11:38.997Z,2.97
2017-09-19T18:14:07.141Z,3.40
2017-09-19T18:16:34.717Z,3.70
2017-09-19T18:19:02.233Z,2.77
2017-09-19T18:21:29.782Z,2.60
2017-09-19T18:23:57.499Z,3.00
2017-09-19T18:26:25.026Z,3.30
2017-09-19T18:28:52.562Z,3.13
2017-09-19T18:31:20.099Z,3.23
2017-09-19T18:33:47.732Z,3.07
2017-09-19T18:36:15.239Z,3.03
2017-09-19T18:38:42.767Z,3.27
2017-09-19T18:41:10.307Z,2.97
2017-09-19T18:43:37.857Z,3.23
2017-09-19T18:46:05.427Z,3.73
2017-09-19T18:48:32.985Z,2.97
2017-09-19T18:51:00.562Z,2.77
2017-09-19T18:53:28.205Z,3.13
2017-09-19T18:55:55.737Z,4.30
2017-09-19T18:58:23.282Z,3.50
2017-09-19T19:00:50.803Z,3.50
2017-09-19T19:03:18.376Z,3.07
2017-09-19T19:05:46.063Z,4.00
2017-09-19T19:08:13.578Z,4.53
2017-09-19T19:10:41.327Z,4.00
2017-09-19T19:13:08.876Z,5.20
2017-09-19T19:15:36.424Z,6.40
2017-09-19T19:18:03.938Z,4.90
2017-09-19T19:20:31.459Z,5.37
2017-09-19T19:22:59.013Z,5.30
2017-09-19T19:25:30.343Z,4.47
2017-09-19T19:27:57.920Z,4.77
2017-09-19T19:30:25.532Z,4.77
2017-09-19T19:32:53.143Z,5.87
2017-09-19T19:35:20.641Z,5.53
2017-09-19T19:37:48.209Z,4.80
2017-09-19T19:40:15.744Z,4.90
2017-09-19T19:42:43.372Z,5.60
2017-09-19T19:45:10.970Z,5.30
2017-09-19T19:47:38.532Z,5.40
2017-09-19T19:50:06.201Z,5.67
2017-09-19T19:52:33.714Z,7.60
2017-09-19T19:55:01.296Z,8.20
2017-09-19T19:57:28.913Z,7.90
2017-09-19T19:59:56.437Z,9.53
2017-09-19T20:02:24.028Z,9.50
2017-09-19T20:04:51.559Z,10.07
2017-09-19T20:07:19.112Z,8.33
2017-09-19T20:09:46.633Z,9.00
2017-09-19T20:12:14.474Z,9.30
2017-09-19T20:14:42.044Z,9.20
2017-09-19T20:17:09.599Z,7.10
2017-09-19T20:19:37.125Z,7.47
2017-09-19T20:22:04.725Z,8.57
2017-09-19T20:24:32.403Z,8.10
2017-09-19T20:26:59.945Z,10.87
2017-09-19T20:29:27.488Z,8.03
2017-09-19T20:31:55.039Z,8.67
2017-09-19T20:34:22.556Z,10.47
2017-09-19T20:36:50.100Z,9.80
2017-09-19T20:39:17.608Z,9.20
2017-09-19T20:41:45.202Z,9.20
2017-09-19T20:44:12.887Z,9.13
2017-09-19T20:46:40.520Z,9.77
2017-09-19T20:49:08.190Z,8.97
2017-09-19T20:51:35.763Z,8.03
2017-09-19T20:54:03.611Z,8.80
2017-09-19T20:56:31.160Z,10.40
2017-09-19T20:58:58.669Z,10.00
2017-09-19T21:01:26.240Z,9.13
2017-09-19T21:03:59.377Z,10.67
2017-09-19T21:06:32.604Z,8.90
2017-09-19T21:09:05.842Z,9.53
2017-09-19T21:11:38.935Z,9.03
2017-09-19T21:14:12.016Z,10.00
2017-09-19T21:16:45.082Z,12.00
2017-09-19T21:19:18.225Z,10.00
2017-09-19T21:21:45.760Z,9.50
2017-09-19T21:24:13.275Z,10.10
2017-09-19T21:26:40.850Z,9.60
2017-09-19T21:29:08.415Z,10.70
2017-09-19T21:31:35.927Z,9.33
2017-09-19T21:34:03.450Z,8.07
2017-09-19T21:36:31.037Z,8.87
2017-09-19T21:38:58.573Z,6.80
2017-09-19T21:41:26.071Z,7.37
2017-09-19T21:43:53.587Z,7.47
2017-09-19T21:46:21.119Z,7.40
2017-09-19T21:48:48.713Z,8.60
2017-09-19T21:51:16.233Z,8.57
2017-09-19T21:53:43.756Z,7.13
2017-09-19T21:56:11.293Z,7.40
2017-09-19T21:58:38.840Z,7.07
2017-09-19T22:01:06.369Z,8.73
2017-09-19T22:03:33.896Z,8.73
2017-09-19T22:06:01.423Z,8.40
2017-09-19T22:08:29.019Z,8.03
2017-09-19T22:10:56.545Z,8.33
2017-09-19T22:13:24.066Z,8.33
2017-09-19T22:15:51.579Z,8.17
2017-09-19T22:18:19.112Z,9.00
2017-09-19T22:20:46.653Z,8.30
2017-09-19T22:23:14.162Z,8.70
2017-09-19T22:25:41.691Z,8.50
2017-09-19T22:28:09.224Z,6.50
2017-09-19T22:30:36.757Z,7.80
2017-09-19T22:33:04.293Z,8.00
2017-09-19T22:35:31.815Z,7.80
2017-09-19T22:37:59.331Z,9.17
2017-09-19T22:40:26.847Z,9.27
2017-09-19T22:42:54.471Z,7.97
2017-09-19T22:45:21.990Z,8.00
2017-09-19T22:47:49.502Z,8.07
2017-09-19T22:50:17.011Z,8.70
2017-09-19T22:52:44.543Z,8.20
2017-09-19T22:55:12.053Z,8.00
2017-09-19T22:57:39.565Z,7.23
2017-09-19T23:00:07.073Z,7.03
2017-09-19T23:02:34.589Z,7.33
2017-09-19T23:05:02.129Z,8.43
2017-09-19T23:07:29.665Z,7.97
2017-09-19T23:09:57.226Z,8.43
2017-09-19T23:12:24.746Z,8.30
2017-09-19T23:14:52.260Z,7.27
2017-09-19T23:17:19.798Z,7.10
2017-09-19T23:19:47.330Z,6.90
2017-09-19T23:22:14.856Z,6.90
2017-09-19T23:24:42.368Z,7.70
2017-09-19T23:27:09.872Z,6.20
2017-09-19T23:29:37.441Z,7.17
2017-09-19T23:32:05.048Z,7.57
2017-09-19T23:34:32.916Z,8.03
2017-09-19T23:37:00.421Z,9.00
2017-09-19T23:39:27.932Z,8.27
2017-09-19T23:41:55.441Z,8.53
2017-09-19T23:44:22.953Z,7.10
2017-09-19T23:46:50.469Z,7.37
2017-09-19T23:49:17.974Z,6.17
2017-09-19T23:51:45.477Z,8.20
2017-09-19T23:54:13.138Z,7.77
2017-09-19T23:56:40.662Z,8.73
2017-09-19T23:59:08.194Z,12.10
